createdAt,value
2017-12-13T00:04:13.406Z,78.60
2017-12-13T00:09:16.707Z,78.30
2017-12-13T00:14:19.246Z,78.30
2017-12-13T00:19:21.781Z,78.50
2017-12-13T00:24:24.319Z,78.20
2017-12-13T00:29:27.625Z,78.50
2017-12-13T00:34:30.154Z,78.50
2017-12-13T00:39:32.686Z,78.40
2017-12-13T00:44:35.227Z,78.20
2017-12-13T00:49:38.523Z,78.90
2017-12-13T00:54:41.063Z,78.80
2017-12-13T00:59:43.591Z,78.80
2017-12-13T01:04:46.139Z,78.90
2017-12-13T01:09:48.678Z,78.90
2017-12-13T01:14:51.206Z,79.30
2017-12-13T01:19:53.747Z,79.30
2017-12-13T01:24:56.273Z,79.40
2017-12-13T01:29:58.811Z,79.60
2017-12-13T01:35:01.358Z,79.40
2017-12-13T01:40:03.886Z,79.40
2017-12-13T01:45:06.427Z,79.30
2017-12-13T01:50:09.729Z,79.70
2017-12-13T01:55:12.270Z,79.70
2017-12-13T02:00:14.819Z,79.30
2017-12-13T02:05:17.350Z,79.40
2017-12-13T02:10:19.902Z,79.60
2017-12-13T02:15:22.430Z,79.50
2017-12-13T02:20:24.974Z,79.50
2017-12-13T02:25:27.518Z,79.50
2017-12-13T02:30:30.818Z,79.20
2017-12-13T02:35:33.358Z,79.10
2017-12-13T02:40:47.922Z,79.10
2017-12-13T02:45:51.230Z,79.60
2017-12-13T02:50:53.775Z,79.60
2017-12-13T02:55:56.330Z,79.30
2017-12-13T03:00:58.878Z,79.60
2017-12-13T03:06:01.444Z,79.60
2017-12-13T03:11:04.162Z,79.20
2017-12-13T03:16:06.711Z,79.20
2017-12-13T03:21:09.250Z,79.20
2017-12-13T03:26:11.783Z,79.10
2017-12-13T03:31:14.325Z,78.80
2017-12-13T03:36:17.628Z,78.60
2017-12-13T03:41:20.915Z,78.60
2017-12-13T03:46:23.450Z,78.60
2017-12-13T03:51:26.748Z,79.20
2017-12-13T03:56:29.283Z,79.20
2017-12-13T04:01:31.818Z,79.20
2017-12-13T04:06:34.379Z,79.10
2017-12-13T04:11:36.910Z,79.30
2017-12-13T04:16:39.455Z,79.30
2017-12-13T04:21:42.772Z,79.40
2017-12-13T04:26:45.310Z,79.30
2017-12-13T04:31:47.847Z,79.50
2017-12-13T04:36:50.409Z,79.50
2017-12-13T04:41:52.943Z,79.50
2017-12-13T04:46:55.515Z,79.20
2017-12-13T04:51:58.042Z,79.20
2017-12-13T04:57:01.126Z,79.20
2017-12-13T05:02:05.465Z,79.10
2017-12-13T05:07:08.619Z,78.90
2017-12-13T05:12:12.510Z,78.80
2017-12-13T05:17:16.832Z,78.80
2017-12-13T05:22:19.803Z,78.50
2017-12-13T05:27:24.914Z,78.80
2017-12-13T05:32:29.181Z,78.50
2017-12-13T05:37:32.451Z,78.50
2017-12-13T05:42:38.833Z,78.70
2017-12-13T05:47:42.778Z,78.80
2017-12-13T05:52:46.560Z,78.50
2017-12-13T05:57:51.064Z,78.60
2017-12-13T06:02:55.176Z,79.00
2017-12-13T06:07:59.550Z,78.60
2017-12-13T06:13:02.754Z,78.50
2017-12-13T06:18:05.779Z,78.80
2017-12-13T06:23:18.845Z,78.40
2017-12-13T06:28:22.573Z,78.40
2017-12-13T06:33:25.519Z,78.80
2017-12-13T06:38:29.617Z,78.30
2017-12-13T06:48:40.398Z,78.70
2017-12-13T06:53:43.305Z,78.50
2017-12-13T06:58:47.434Z,78.60
2017-12-13T07:03:51.870Z,78.40
2017-12-13T07:08:55.441Z,78.50
2017-12-13T07:13:59.237Z,78.90
2017-12-13T07:19:02.756Z,78.80
2017-12-13T07:24:07.156Z,78.70
2017-12-13T07:29:13.677Z,78.60
2017-12-13T07:34:17.174Z,78.60
2017-12-13T07:39:23.272Z,78.90
2017-12-13T07:44:26.222Z,79.10
2017-12-13T07:49:29.853Z,78.50
2017-12-13T07:54:34.867Z,78.80
2017-12-13T07:59:40.028Z,78.90
2017-12-13T08:04:43.167Z,79.00
2017-12-13T08:09:46.243Z,79.00
2017-12-13T08:14:48.794Z,79.30
2017-12-13T08:19:51.344Z,79.40
2017-12-13T08:24:53.891Z,79.50
2017-12-13T08:29:56.435Z,79.50
2017-12-13T08:34:59.003Z,79.60
2017-12-13T08:40:01.548Z,79.40
2017-12-13T08:45:04.074Z,79.50
2017-12-13T08:50:07.382Z,79.50
2017-12-13T08:55:09.914Z,79.40
2017-12-13T09:00:12.455Z,79.30
2017-12-13T09:05:14.998Z,79.50
2017-12-13T09:10:17.534Z,79.50
2017-12-13T09:15:20.082Z,79.60
2017-12-13T09:20:22.631Z,79.20
2017-12-13T09:25:25.175Z,79.00
2017-12-13T09:30:27.699Z,78.80
2017-12-13T09:35:30.238Z,78.10
2017-12-13T09:40:32.839Z,78.00
2017-12-13T09:45:35.370Z,77.60
2017-12-13T09:50:38.675Z,77.40
2017-12-13T09:55:41.989Z,77.10
2017-12-13T10:00:44.515Z,76.90
2017-12-13T10:05:47.046Z,76.40
2017-12-13T10:10:49.589Z,76.80
2017-12-13T10:15:52.902Z,76.60
2017-12-13T10:20:55.446Z,76.60
2017-12-13T10:25:57.984Z,75.60
2017-12-13T10:31:00.523Z,75.70
2017-12-13T10:36:03.065Z,76.20
2017-12-13T10:41:05.606Z,76.40
2017-12-13T10:46:08.146Z,76.40
2017-12-13T10:51:10.691Z,76.80
2017-12-13T10:56:13.218Z,77.50
2017-12-13T11:01:15.755Z,77.10
2017-12-13T11:06:18.294Z,76.90
2017-12-13T11:11:20.838Z,76.90
2017-12-13T11:16:23.367Z,77.00
2017-12-13T11:21:25.894Z,76.60
2017-12-13T11:26:28.439Z,73.90
2017-12-13T11:31:30.994Z,71.80
2017-12-13T11:36:33.545Z,69.20
2017-12-13T11:41:36.090Z,67.70
2017-12-13T11:46:38.640Z,66.30
2017-12-13T11:51:41.178Z,66.40
2017-12-13T11:56:44.478Z,65.10
2017-12-13T12:01:47.816Z,66.20
2017-12-13T12:06:50.363Z,66.00
2017-12-13T12:11:52.919Z,64.50
2017-12-13T12:16:55.467Z,67.90
2017-12-13T12:21:58.038Z,65.10
2017-12-13T12:27:00.595Z,65.10
2017-12-13T12:32:03.915Z,63.40
2017-12-13T12:37:06.454Z,63.30
2017-12-13T12:42:09.778Z,63.80
2017-12-13T12:47:12.364Z,63.60
2017-12-13T12:52:14.908Z,60.10
2017-12-13T12:57:17.443Z,60.90
2017-12-13T13:02:19.992Z,60.10
2017-12-13T13:07:22.556Z,59.20
2017-12-13T13:12:25.114Z,58.80
2017-12-13T13:17:27.658Z,58.10
2017-12-13T13:22:30.211Z,58.70
2017-12-13T13:27:33.540Z,55.80
2017-12-13T13:32:36.851Z,56.70
2017-12-13T13:37:40.175Z,56.20
2017-12-13T13:42:43.494Z,56.10
2017-12-13T13:47:46.046Z,56.00
2017-12-13T13:52:48.592Z,55.80
2017-12-13T13:57:51.131Z,57.30
2017-12-13T14:02:53.666Z,58.30
2017-12-13T14:07:59.293Z,60.80
2017-12-13T14:13:06.994Z,62.70
2017-12-13T14:18:15.659Z,62.10
2017-12-13T14:23:24.065Z,62.50
2017-12-13T14:28:30.905Z,64.40
2017-12-13T14:38:45.989Z,62.90
2017-12-13T14:54:18.626Z,60.90
2017-12-13T14:59:24.078Z,61.10
2017-12-13T15:09:43.569Z,61.00
2017-12-13T15:14:54.145Z,61.80
2017-12-13T15:20:02.377Z,61.20
2017-12-13T15:25:08.170Z,61.80
2017-12-13T15:30:12.488Z,61.40
2017-12-13T15:35:16.086Z,61.80
2017-12-13T15:40:19.881Z,61.50
2017-12-13T15:50:36.523Z,62.80
2017-12-13T15:55:39.515Z,63.30
2017-12-13T16:00:47.071Z,63.80
2017-12-13T16:05:51.898Z,64.50
2017-12-13T16:10:58.762Z,64.70
2017-12-13T16:16:03.636Z,65.00
2017-12-13T16:21:07.388Z,65.40
2017-12-13T16:26:15.122Z,65.70
2017-12-13T16:31:22.441Z,66.00
2017-12-13T16:36:33.597Z,66.00
2017-12-13T16:46:50.471Z,66.40
2017-12-13T16:51:53.105Z,66.10
2017-12-13T16:56:55.659Z,66.20
2017-12-13T17:01:58.201Z,66.20
2017-12-13T17:07:00.714Z,66.60
2017-12-13T17:12:03.255Z,66.50
2017-12-13T17:17:06.559Z,67.70
2017-12-13T17:22:09.098Z,67.00
2017-12-13T17:27:11.665Z,67.40
2017-12-13T17:32:14.204Z,67.80
2017-12-13T17:37:16.743Z,68.30
2017-12-13T17:42:19.283Z,67.80
2017-12-13T17:47:21.819Z,68.20
2017-12-13T17:52:24.355Z,68.10
2017-12-13T17:57:27.665Z,69.50
2017-12-13T18:02:30.199Z,68.70
2017-12-13T18:07:32.743Z,68.90
2017-12-13T18:12:35.290Z,68.90
2017-12-13T18:17:37.823Z,69.00
2017-12-13T18:22:40.354Z,69.30
2017-12-13T18:27:43.604Z,69.00
2017-12-13T18:32:46.238Z,68.40
2017-12-13T18:37:50.571Z,69.00
2017-12-13T18:42:53.438Z,68.00
2017-12-13T18:47:56.526Z,68.50
2017-12-13T18:53:00.086Z,67.50
2017-12-13T18:58:03.627Z,67.40
2017-12-13T19:03:06.767Z,69.10
2017-12-13T19:08:10.448Z,72.10
2017-12-13T19:13:13.964Z,72.10
2017-12-13T19:18:16.829Z,72.20
2017-12-13T19:23:20.824Z,73.00
2017-12-13T19:28:24.081Z,73.80
2017-12-13T19:33:27.275Z,74.00
2017-12-13T19:38:30.620Z,74.10
2017-12-13T19:43:33.662Z,74.10
2017-12-13T19:48:36.704Z,74.30
2017-12-13T19:53:40.956Z,74.40
2017-12-13T19:58:44.082Z,74.20
2017-12-13T20:03:47.883Z,74.50
2017-12-13T20:08:51.609Z,75.00
2017-12-13T20:13:54.758Z,75.00
2017-12-13T20:18:58.152Z,75.20
2017-12-13T20:24:02.928Z,75.10
2017-12-13T20:29:06.633Z,74.80
2017-12-13T20:34:09.618Z,74.90
2017-12-13T20:39:13.439Z,74.80
2017-12-13T20:44:17.698Z,75.00
2017-12-13T20:49:21.163Z,74.90
2017-12-13T20:54:26.101Z,75.00
2017-12-13T20:59:29.047Z,75.20
2017-12-13T21:04:31.961Z,75.70
2017-12-13T21:09:35.618Z,75.70
2017-12-13T21:14:39.437Z,76.00
2017-12-13T21:19:43.687Z,76.00
2017-12-13T21:24:48.099Z,76.00
2017-12-13T21:29:51.808Z,76.60
2017-12-13T21:34:54.741Z,76.60
2017-12-13T21:39:58.099Z,76.50
2017-12-13T21:45:01.576Z,76.80
2017-12-13T21:50:04.910Z,77.20
2017-12-13T21:55:07.860Z,76.80
2017-12-13T22:00:10.882Z,77.20
2017-12-13T22:05:13.624Z,77.20
2017-12-13T22:10:17.021Z,77.60
2017-12-13T22:15:20.006Z,77.60
2017-12-13T22:20:22.567Z,77.10
2017-12-13T22:25:25.851Z,77.80
2017-12-13T22:30:28.390Z,77.80
2017-12-13T22:35:31.695Z,78.60
2017-12-13T22:40:34.228Z,78.60
2017-12-13T22:45:36.759Z,78.60
2017-12-13T22:50:39.294Z,78.30
2017-12-13T22:55:41.818Z,78.70
2017-12-13T23:00:51.151Z,78.10
2017-12-13T23:05:53.684Z,78.20
2017-12-13T23:10:56.210Z,78.60
2017-12-13T23:15:59.502Z,79.10
2017-12-13T23:21:02.040Z,79.10
2017-12-13T23:26:04.583Z,79.30
2017-12-13T23:31:07.121Z,78.80
2017-12-13T23:36:10.427Z,78.90
2017-12-13T23:41:12.966Z,78.90
2017-12-13T23:46:16.264Z,78.90
2017-12-13T23:51:18.817Z,78.80
2017-12-13T23:56:22.115Z,78.90
